Observation data for Northfield on 11/19/2019      Previous  Date  Next       Current Mesonet Observations  Soil Data  Daily Summary Page  Observations in Plain Language
KNOR 190600Z 24007KT 06/M01 A2994 RMK A01 T00631014  RH  058%=      5-min Rain = 0
KNOR 190605Z 23008KT 06/M01 A2994 RMK A01 T00611013  RH  060%=      5-min Rain = 0
KNOR 190610Z 23007KT 06/M01 A2994 RMK A01 T00571013  RH  061%=      5-min Rain = 0
KNOR 190615Z 23007KT 06/M01 A2995 RMK A01 T00561014  RH  061%=      5-min Rain = 0
KNOR 190620Z 23006KT 06/M01 A2995 RMK A01 T00551014  RH  062%=      5-min Rain = 0
KNOR 190625Z 22006KT 06/M02 A2995 RMK A01 T00551015  RH  061%=      5-min Rain = 0
KNOR 190630Z 23006KT 06/M02 A2994 RMK A01 T00561016  RH  060%=      5-min Rain = 0
KNOR 190635Z 23006KT 06/M02 A2995 RMK A01 T00571017  RH  060%=      5-min Rain = 0
KNOR 190640Z 23007KT 06/M02 A2995 RMK A01 T00571017  RH  060%=      5-min Rain = 0
KNOR 190645Z 23007KT 06/M02 A2995 RMK A01 T00571017  RH  060%=      5-min Rain = 0
KNOR 190650Z 23007KT 06/M02 A2995 RMK A01 T00571016  RH  060%=      5-min Rain = 0
KNOR 190655Z 22008KT 06/M02 A2995 RMK A01 T00581015  RH  060%=      5-min Rain = 0
KNOR 190700Z 24006KT 06/M02 A2995 RMK A01 T00641015  RH  058%=      5-min Rain = 0
KNOR 190705Z 25007KT 07/M02 A2995 RMK A01 T00671015  RH  056%=      5-min Rain = 0
KNOR 190710Z 24006KT 07/M02 A2995 RMK A01 T00681015  RH  056%=      5-min Rain = 0
KNOR 190715Z 24006KT 07/M02 A2995 RMK A01 T00701015  RH  055%=      5-min Rain = 0
KNOR 190720Z 23007KT 07/M02 A2995 RMK A01 T00671015  RH  056%=      5-min Rain = 0
KNOR 190725Z 24007KT 06/M02 A2995 RMK A01 T00631015  RH  058%=      5-min Rain = 0
KNOR 190730Z 23007KT 06/M01 A2996 RMK A01 T00611014  RH  059%=      5-min Rain = 0
KNOR 190735Z 25007KT 06/M01 A2995 RMK A01 T00601014  RH  060%=      5-min Rain = 0
KNOR 190740Z 25007KT 06/M01 A2995 RMK A01 T00601014  RH  060%=      5-min Rain = 0
KNOR 190745Z 25006KT 06/M01 A2995 RMK A01 T00581014  RH  060%=      5-min Rain = 0
KNOR 190750Z 26006KT 06/M02 A2995 RMK A01 T00571015  RH  061%=      5-min Rain = 0
KNOR 190755Z 25006KT 05/M02 A2995 RMK A01 T00531016  RH  062%=      5-min Rain = 0
KNOR 190800Z 26006KT 05/M02 A2995 RMK A01 T00501015  RH  064%=      5-min Rain = 0
KNOR 190805Z 26005KT 05/M01 A2995 RMK A01 T00521014  RH  063%=      5-min Rain = 0
KNOR 190810Z 25005KT 05/M01 A2995 RMK A01 T00531014  RH  062%=      5-min Rain = 0
KNOR 190815Z 26003KT 06/M01 A2995 RMK A01 T00561014  RH  061%=      5-min Rain = 0
KNOR 190820Z 30002KT 06/M01 A2994 RMK A01 T00621014  RH  059%=      5-min Rain = 0
KNOR 190825Z 32001KT 07/M02 A2994 RMK A01 T00661015  RH  057%=      5-min Rain = 0
KNOR 190830Z 26002KT 07/M01 A2994 RMK A01 T00661014  RH  057%=      5-min Rain = 0
KNOR 190835Z 27003KT 07/M02 A2994 RMK A01 T00681016  RH  056%=      5-min Rain = 0
KNOR 190840Z 26003KT 07/M02 A2995 RMK A01 T00661016  RH  057%=      5-min Rain = 0
KNOR 190845Z 25006KT 06/M02 A2995 RMK A01 T00601017  RH  058%=      5-min Rain = 0
KNOR 190850Z 25007KT 06/M02 A2995 RMK A01 T00551015  RH  061%=      5-min Rain = 0
KNOR 190855Z 25007KT 05/M02 A2995 RMK A01 T00541015  RH  062%=      5-min Rain = 0
KNOR 190900Z 24007KT 05/M02 A2995 RMK A01 T00511015  RH  063%=      5-min Rain = 0
KNOR 190905Z 24007KT 05/M02 A2995 RMK A01 T00491016  RH  064%=      5-min Rain = 0
KNOR 190910Z 24007KT 05/M02 A2995 RMK A01 T00461016  RH  064%=      5-min Rain = 0
KNOR 190915Z 24007KT 05/M02 A2995 RMK A01 T00451016  RH  065%=      5-min Rain = 0
KNOR 190920Z 25007KT 05/M02 A2995 RMK A01 T00451015  RH  065%=      5-min Rain = 0
KNOR 190925Z 27005KT 05/M02 A2995 RMK A01 T00451015  RH  066%=      5-min Rain = 0
KNOR 190930Z 26005KT 05/M02 A2995 RMK A01 T00471015  RH  065%=      5-min Rain = 0
KNOR 190935Z 25006KT 05/M02 A2995 RMK A01 T00461015  RH  065%=      5-min Rain = 0
KNOR 190940Z 25005KT 05/M02 A2995 RMK A01 T00461015  RH  065%=      5-min Rain = 0
KNOR 190945Z 26005KT 05/M02 A2995 RMK A01 T00491015  RH  064%=      5-min Rain = 0
KNOR 190950Z 24006KT 05/M02 A2995 RMK A01 T00451016  RH  065%=      5-min Rain = 0
KNOR 190955Z 25006KT 04/M02 A2996 RMK A01 T00421015  RH  067%=      5-min Rain = 0
KNOR 191000Z 25006KT 04/M02 A2996 RMK A01 T00421015  RH  067%=      5-min Rain = 0
KNOR 191005Z 25007KT 04/M02 A2996 RMK A01 T00421015  RH  067%=      5-min Rain = 0
KNOR 191010Z 26007KT 04/M02 A2996 RMK A01 T00421015  RH  067%=      5-min Rain = 0
KNOR 191015Z 25007KT 04/M02 A2996 RMK A01 T00421015  RH  067%=      5-min Rain = 0
KNOR 191020Z 25007KT 04/M02 A2996 RMK A01 T00411015  RH  067%=      5-min Rain = 0
KNOR 191025Z 25006KT 04/M02 A2996 RMK A01 T00411015  RH  068%=      5-min Rain = 0
KNOR 191030Z 25006KT 04/M02 A2996 RMK A01 T00411015  RH  067%=      5-min Rain = 0
KNOR 191035Z 25006KT 04/M02 A2996 RMK A01 T00411015  RH  067%=      5-min Rain = 0
KNOR 191040Z 24008KT 04/M02 A2996 RMK A01 T00401015  RH  068%=      5-min Rain = 0
KNOR 191045Z 24007KT 04/M02 A2996 RMK A01 T00401015  RH  068%=      5-min Rain = 0
KNOR 191050Z 24007KT 04/M02 A2996 RMK A01 T00391015  RH  068%=      5-min Rain = 0
KNOR 191055Z 24007KT 04/M01 A2996 RMK A01 T00411014  RH  068%=      5-min Rain = 0
KNOR 191100Z 24006KT 04/M01 A2996 RMK A01 T00431014  RH  067%=      5-min Rain = 0
KNOR 191105Z 24007KT 04/M02 A2996 RMK A01 T00431015  RH  067%=      5-min Rain = 0
KNOR 191110Z 23007KT 04/M01 A2996 RMK A01 T00441014  RH  067%=      5-min Rain = 0
KNOR 191115Z 23007KT 04/M01 A2996 RMK A01 T00431014  RH  067%=      5-min Rain = 0
KNOR 191120Z 24006KT 04/M01 A2996 RMK A01 T00441013  RH  067%=      5-min Rain = 0
KNOR 191125Z 25005KT 05/M01 A2996 RMK A01 T00461013  RH  066%=      5-min Rain = 0
KNOR 191130Z 24005KT 05/M01 A2996 RMK A01 T00501013  RH  064%=      5-min Rain = 0
KNOR 191135Z 24005KT 05/M01 A2995 RMK A01 T00481014  RH  064%=      5-min Rain = 0
KNOR 191140Z 24004KT 05/M01 A2995 RMK A01 T00501013  RH  064%=      5-min Rain = 0
KNOR 191145Z 24003KT 05/M01 A2995 RMK A01 T00521013  RH  063%=      5-min Rain = 0
KNOR 191150Z 25003KT 06/M01 A2995 RMK A01 T00591012  RH  061%=      5-min Rain = 0
KNOR 191155Z 25003KT 06/M01 A2995 RMK A01 T00631012  RH  059%=      5-min Rain = 0
KNOR 191200Z 25003KT 07/M01 A2995 RMK A01 T00651013  RH  058%=      5-min Rain = 0
KNOR 191205Z 26003KT 07/M01 A2995 RMK A01 T00671013  RH  057%=      5-min Rain = 0
KNOR 191210Z 24004KT 07/M01 A2995 RMK A01 T00701013  RH  056%=      5-min Rain = 0
KNOR 191215Z 22004KT 06/M02 A2995 RMK A01 T00621015  RH  058%=      5-min Rain = 0
KNOR 191220Z 22004KT 06/M02 A2995 RMK A01 T00561015  RH  061%=      5-min Rain = 0
KNOR 191225Z 22002KT 06/M01 A2994 RMK A01 T00601013  RH  060%=      5-min Rain = 0
KNOR 191230Z 22002KT 07/M01 A2994 RMK A01 T00661013  RH  058%=      5-min Rain = 0
KNOR 191235Z 22002KT 07/M01 A2994 RMK A01 T00671014  RH  057%=      5-min Rain = 0
KNOR 191240Z 21002KT 07/M01 A2994 RMK A01 T00691013  RH  056%=      5-min Rain = 0
KNOR 191245Z 13002KT 07/M01 A2993 RMK A01 T00711014  RH  055%=      5-min Rain = 0
KNOR 191250Z 08003KT 07/M01 A2993 RMK A01 T00681014  RH  056%=      5-min Rain = 0
KNOR 191255Z 08004KT 06/M02 A2993 RMK A01 T00631016  RH  057%=      5-min Rain = 0
KNOR 191300Z 05004KT 06/M02 A2993 RMK A01 T00601015  RH  059%=      5-min Rain = 0
KNOR 191305Z 05004KT 06/M02 A2993 RMK A01 T00641015  RH  057%=      5-min Rain = 0
KNOR 191310Z 03004KT 07/M01 A2993 RMK A01 T00711014  RH  055%=      5-min Rain = 0
KNOR 191315Z 03003KT 08/M01 A2993 RMK A01 T00811014  RH  052%=      5-min Rain = 0
KNOR 191320Z 31001KT 08/M02 A2994 RMK A01 T00791015  RH  052%=      5-min Rain = 0
KNOR 191325Z 23001KT 06/M02 A2994 RMK A01 T00621019  RH  057%=      5-min Rain = 0
KNOR 191330Z 22004KT 04/M02 A2994 RMK A01 T00361021  RH  066%=      5-min Rain = 0
KNOR 191335Z 20006KT 03/M02 A2994 RMK A01 T00321018  RH  070%=      5-min Rain = 0
KNOR 191340Z 19005KT 04/M02 A2994 RMK A01 T00371015  RH  069%=      5-min Rain = 0
KNOR 191345Z 16006KT 05/M01 A2993 RMK A01 T00471013  RH  066%=      5-min Rain = 0
KNOR 191350Z 16006KT 06/M01 A2993 RMK A01 T00621008  RH  061%=      5-min Rain = 0
KNOR 191355Z 16005KT 07/M01 A2993 RMK A01 T00731005  RH  058%=      5-min Rain = 0
KNOR 191400Z 20002KT 06/M01 A2993 RMK A01 T00641009  RH  060%=      5-min Rain = 0
KNOR 191405Z 25002KT 06/M01 A2994 RMK A01 T00611006  RH  063%=      5-min Rain = 0
KNOR 191410Z 28005KT 06/M01 A2994 RMK A01 T00601006  RH  063%=      5-min Rain = 0
KNOR 191415Z 27005KT 06/M01 A2994 RMK A01 T00591005  RH  064%=      5-min Rain = 0
KNOR 191420Z 26006KT 06/M01 A2995 RMK A01 T00591006  RH  064%=      5-min Rain = 0
KNOR 191425Z 27005KT 07/M01 A2995 RMK A01 T00651007  RH  061%=      5-min Rain = 0
KNOR 191430Z 26006KT 07/M01 A2995 RMK A01 T00701007  RH  059%=      5-min Rain = 0
KNOR 191435Z 26004KT 08/M01 A2995 RMK A01 T00751006  RH  057%=      5-min Rain = 0
KNOR 191440Z 25006KT 08/M01 A2995 RMK A01 T00821005  RH  055%=      5-min Rain = 0
KNOR 191445Z 24005KT 09/M00 A2995 RMK A01 T00861004  RH  054%=      5-min Rain = 0
KNOR 191450Z 25004KT 09/M00 A2995 RMK A01 T00911002  RH  053%=      5-min Rain = 0
KNOR 191455Z 25004KT 10/00 A2995 RMK A01 T009900-0  RH  051%=      5-min Rain = 0
KNOR 191500Z 24004KT 11/00 A2995 RMK A01 T01060001  RH  049%=      5-min Rain = 0
KNOR 191505Z 24004KT 11/00 A2995 RMK A01 T01140003  RH  047%=      5-min Rain = 0
KNOR 191510Z 25004KT 12/00 A2995 RMK A01 T01190002  RH  045%=      5-min Rain = 0
KNOR 191515Z 26002KT 12/00 A2995 RMK A01 T01240003  RH  044%=      5-min Rain = 0
KNOR 191520Z 26001KT 13/00 A2995 RMK A01 T01310003  RH  042%=      5-min Rain = 0
KNOR 191525Z 27002KT 14/00 A2995 RMK A01 T01360003  RH  040%=      5-min Rain = 0
KNOR 191530Z 25001KT 14/00 A2995 RMK A01 T01380001  RH  040%=      5-min Rain = 0
KNOR 191535Z 27002KT 14/00 A2995 RMK A01 T01430001  RH  038%=      5-min Rain = 0
KNOR 191540Z 26002KT 15/00 A2995 RMK A01 T01470001  RH  037%=      5-min Rain = 0
KNOR 191545Z 24002KT 15/00 A2995 RMK A01 T01490002  RH  037%=      5-min Rain = 0
KNOR 191550Z 23002KT 15/00 A2995 RMK A01 T01530001  RH  036%=      5-min Rain = 0
KNOR 191555Z 21002KT 16/00 A2995 RMK A01 T01580002  RH  035%=      5-min Rain = 0
KNOR 191600Z 23001KT 17/00 A2995 RMK A01 T01650003  RH  034%=      5-min Rain = 0
KNOR 191605Z 17001KT 17/00 A2995 RMK A01 T01700002  RH  032%=      5-min Rain = 0
KNOR 191610Z 08002KT 17/00 A2995 RMK A01 T01730002  RH  032%=      5-min Rain = 0
KNOR 191615Z 07001KT 18/00 A2995 RMK A01 T01750002  RH  031%=      5-min Rain = 0
KNOR 191620Z 12002KT 18/00 A2995 RMK A01 T01770002  RH  031%=      5-min Rain = 0
KNOR 191625Z 14002KT 18/00 A2995 RMK A01 T01820003  RH  030%=      5-min Rain = 0
KNOR 191630Z 10003KT 19/00 A2995 RMK A01 T01880004  RH  029%=      5-min Rain = 0
KNOR 191635Z 09003KT 19/00 A2995 RMK A01 T01900004  RH  029%=      5-min Rain = 0
KNOR 191640Z 12004KT 20/01 A2995 RMK A01 T01970006  RH  028%=      5-min Rain = 0
KNOR 191645Z 09003KT 20/01 A2995 RMK A01 T02010006  RH  027%=      5-min Rain = 0
KNOR 191650Z 11005KT 21/01 A2994 RMK A01 T02050005  RH  027%=      5-min Rain = 0
KNOR 191655Z 11005KT 21/01 A2994 RMK A01 T02070005  RH  026%=      5-min Rain = 0
KNOR 191700Z 13007G13KT 21/01 A2994 RMK A01 T02120005  RH  026%=      5-min Rain = 0
KNOR 191705Z 16009KT 22/01 A2994 RMK A01 T02190005  RH  024%=      5-min Rain = 0
KNOR 191710Z 15009KT 22/01 A2993 RMK A01 T02190006  RH  025%=      5-min Rain = 0
KNOR 191715Z 15010KT 22/01 A2993 RMK A01 T02160007  RH  025%=      5-min Rain = 0
KNOR 191720Z 15011KT 21/01 A2993 RMK A01 T02130008  RH  026%=      5-min Rain = 0
KNOR 191725Z 15009KT 22/01 A2992 RMK A01 T02180009  RH  025%=      5-min Rain = 0
KNOR 191730Z 15010KT 22/01 A2992 RMK A01 T02150009  RH  026%=      5-min Rain = 0
KNOR 191735Z 14009KT 22/01 A2992 RMK A01 T02170010  RH  026%=      5-min Rain = 0
KNOR 191740Z 14010KT 22/01 A2991 RMK A01 T02150011  RH  026%=      5-min Rain = 0
KNOR 191745Z 14010KT 22/01 A2991 RMK A01 T02160012  RH  026%=      5-min Rain = 0
KNOR 191750Z 14011G16KT 22/01 A299 RMK A01 T02180011  RH  026%=      5-min Rain = 0
KNOR 191755Z 14010KT 23/01 A299 RMK A01 T02290010  RH  024%=      5-min Rain = 0
KNOR 191800Z 15011G16KT 23/01 A299 RMK A01 T02260008  RH  024%=      5-min Rain = 0
KNOR 191805Z 15012G17KT 23/01 A299 RMK A01 T02290009  RH  024%=      5-min Rain = 0
KNOR 191810Z 15011KT 23/01 A2989 RMK A01 T02320010  RH  023%=      5-min Rain = 0
KNOR 191815Z 16012G17KT 24/01 A2989 RMK A01 T02350009  RH  023%=      5-min Rain = 0
KNOR 191820Z 15011G17KT 23/01 A2989 RMK A01 T02340010  RH  023%=      5-min Rain = 0
KNOR 191825Z 14012KT 23/01 A2989 RMK A01 T02320010  RH  023%=      5-min Rain = 0
KNOR 191830Z 16011G16KT 23/01 A2988 RMK A01 T02340011  RH  023%=      5-min Rain = 0
KNOR 191835Z 15011G16KT 24/01 A2988 RMK A01 T02420009  RH  022%=      5-min Rain = 0
KNOR 191840Z 16011G18KT 24/01 A2988 RMK A01 T02440008  RH  021%=      5-min Rain = 0
KNOR 191845Z 16011G18KT 25/01 A2987 RMK A01 T02480008  RH  021%=      5-min Rain = 0
KNOR 191850Z 16012G18KT 25/01 A2987 RMK A01 T02510008  RH  021%=      5-min Rain = 0
KNOR 191855Z 16014KT 25/01 A2986 RMK A01 T02450008  RH  021%=      5-min Rain = 0
KNOR 191900Z 16014G20KT 25/01 A2986 RMK A01 T02480009  RH  021%=      5-min Rain = 0
KNOR 191905Z 17013G19KT 25/01 A2985 RMK A01 T02450010  RH  022%=      5-min Rain = 0
KNOR 191910Z 15011G17KT 25/01 A2985 RMK A01 T02540012  RH  021%=      5-min Rain = 0
KNOR 191915Z 16012G17KT 26/01 A2984 RMK A01 T02570011  RH  020%=      5-min Rain = 0
KNOR 191920Z 17013KT 27/M00 A2984 RMK A01 T02651003  RH  018%=      5-min Rain = 0
KNOR 191925Z 18013KT 27/M00 A2984 RMK A01 T02651004  RH  017%=      5-min Rain = 0
KNOR 191930Z 19014G20KT 27/M00 A2984 RMK A01 T02661002  RH  017%=      5-min Rain = 0
KNOR 191935Z 17016G21KT 27/M00 A2983 RMK A01 T02661004  RH  017%=      5-min Rain = 0
KNOR 191940Z 18017G23KT 27/M00 A2983 RMK A01 T02661004  RH  017%=      5-min Rain = 0
KNOR 191945Z 19016G22KT 27/M00 A2983 RMK A01 T02681003  RH  017%=      5-min Rain = 0
KNOR 191950Z 19015G20KT 27/M01 A2982 RMK A01 T02731005  RH  016%=      5-min Rain = 0
KNOR 191955Z 19015G22KT 27/M01 A2982 RMK A01 T02721006  RH  016%=      5-min Rain = 0
KNOR 192000Z 19016G23KT 27/M00 A2982 RMK A01 T02671004  RH  017%=      5-min Rain = 0
KNOR 192005Z 19015G21KT 27/M00 A2981 RMK A01 T02691002  RH  017%=      5-min Rain = 0
KNOR 192010Z 18017G23KT 27/M00 A2981 RMK A01 T02681003  RH  017%=      5-min Rain = 0
KNOR 192015Z 17016G22KT 27/M00 A2981 RMK A01 T02651002  RH  018%=      5-min Rain = 0
KNOR 192020Z 18019G26KT 26/M00 A2981 RMK A01 T02641001  RH  018%=      5-min Rain = 0
KNOR 192025Z 18015G24KT 27/00 A2981 RMK A01 T026800-0  RH  018%=      5-min Rain = 0
KNOR 192030Z 18018G24KT 27/00 A2981 RMK A01 T02670001  RH  018%=      5-min Rain = 0
KNOR 192035Z 19015G23KT 27/00 A2981 RMK A01 T02670001  RH  018%=      5-min Rain = 0
KNOR 192040Z 19014G20KT 27/00 A298 RMK A01 T02720003  RH  018%=      5-min Rain = 0
KNOR 192045Z 19017G25KT 27/00 A298 RMK A01 T02700003  RH  018%=      5-min Rain = 0
KNOR 192050Z 19017G22KT 27/01 A298 RMK A01 T02660006  RH  019%=      5-min Rain = 0
KNOR 192055Z 18017G24KT 27/01 A298 RMK A01 T02650010  RH  019%=      5-min Rain = 0
KNOR 192100Z 19017G26KT 27/01 A298 RMK A01 T02660009  RH  019%=      5-min Rain = 0
KNOR 192105Z 19020G25KT 26/01 A298 RMK A01 T02640006  RH  019%=      5-min Rain = 0
KNOR 192110Z 19016G21KT 27/01 A298 RMK A01 T02650007  RH  019%=      5-min Rain = 0
KNOR 192115Z 18016G24KT 27/01 A2979 RMK A01 T02670008  RH  019%=      5-min Rain = 0
KNOR 192120Z 18016G23KT 27/01 A2979 RMK A01 T02650008  RH  019%=      5-min Rain = 0
KNOR 192125Z 18016G22KT 27/01 A2979 RMK A01 T02670005  RH  018%=      5-min Rain = 0
KNOR 192130Z 18017G22KT 27/00 A2979 RMK A01 T02660001  RH  018%=      5-min Rain = 0
KNOR 192135Z 19018G25KT 26/M00 A2979 RMK A01 T02641002  RH  018%=      5-min Rain = 0
KNOR 192140Z 19017G23KT 27/M00 A2979 RMK A01 T02651003  RH  018%=      5-min Rain = 0
KNOR 192145Z 20016G22KT 26/M00 A2979 RMK A01 T02641002  RH  018%=      5-min Rain = 0
KNOR 192150Z 19017G23KT 26/M00 A2979 RMK A01 T02631001  RH  018%=      5-min Rain = 0
KNOR 192155Z 19017G22KT 26/00 A2979 RMK A01 T026200-0  RH  018%=      5-min Rain = 0
KNOR 192200Z 19015G21KT 26/00 A2979 RMK A01 T026000-0  RH  018%=      5-min Rain = 0
KNOR 192205Z 19014G19KT 26/00 A2979 RMK A01 T02620002  RH  018%=      5-min Rain = 0
KNOR 192210Z 20013G19KT 26/01 A2979 RMK A01 T02620005  RH  019%=      5-min Rain = 0
KNOR 192215Z 19013G18KT 26/01 A2979 RMK A01 T02630010  RH  020%=      5-min Rain = 0
KNOR 192220Z 18014G19KT 26/02 A2979 RMK A01 T02590015  RH  021%=      5-min Rain = 0
KNOR 192225Z 18016G22KT 26/02 A2978 RMK A01 T02570016  RH  021%=      5-min Rain = 0
KNOR 192230Z 18015G20KT 26/02 A2978 RMK A01 T02560015  RH  021%=      5-min Rain = 0
KNOR 192235Z 18015KT 26/02 A2978 RMK A01 T02550016  RH  021%=      5-min Rain = 0
KNOR 192240Z 18011G18KT 25/02 A2979 RMK A01 T02540016  RH  021%=      5-min Rain = 0
KNOR 192245Z 18013G19KT 25/02 A2978 RMK A01 T02500015  RH  022%=      5-min Rain = 0
KNOR 192250Z 18015G20KT 25/02 A2979 RMK A01 T02460016  RH  022%=      5-min Rain = 0
KNOR 192255Z 18012G17KT 25/02 A2979 RMK A01 T02460017  RH  023%=      5-min Rain = 0
KNOR 192300Z 18011G16KT 24/02 A2979 RMK A01 T02440018  RH  023%=      5-min Rain = 0
KNOR 192305Z 18011G16KT 24/02 A2979 RMK A01 T02410019  RH  024%=      5-min Rain = 0
KNOR 192310Z 18013G19KT 24/02 A2979 RMK A01 T02390020  RH  024%=      5-min Rain = 0
KNOR 192315Z 18011G16KT 23/02 A2979 RMK A01 T02340021  RH  025%=      5-min Rain = 0
KNOR 192320Z 17011KT 23/02 A2979 RMK A01 T02320022  RH  026%=      5-min Rain = 0
KNOR 192325Z 17011KT 23/02 A2979 RMK A01 T02280023  RH  026%=      5-min Rain = 0
KNOR 192330Z 17010KT 23/03 A2979 RMK A01 T02250025  RH  027%=      5-min Rain = 0
KNOR 192335Z 17009KT 22/03 A2978 RMK A01 T02200025  RH  028%=      5-min Rain = 0
KNOR 192340Z 17009KT 22/03 A2978 RMK A01 T02160026  RH  029%=      5-min Rain = 0
KNOR 192345Z 17008KT 21/03 A2978 RMK A01 T02120026  RH  030%=      5-min Rain = 0
KNOR 192350Z 17008KT 21/03 A2978 RMK A01 T02070026  RH  031%=      5-min Rain = 0
KNOR 192355Z 17009KT 20/03 A2978 RMK A01 T02030026  RH  031%=      5-min Rain = 0
KNOR 200000Z 16009KT 20/03 A2978 RMK A01 T01980026  RH  032%=      5-min Rain = 0
KNOR 200005Z 16009KT 19/03 A2978 RMK A01 T01940027  RH  033%=      5-min Rain = 0
KNOR 200010Z 16009KT 19/03 A2978 RMK A01 T01910027  RH  034%=      5-min Rain = 0
KNOR 200015Z 16009KT 19/03 A2978 RMK A01 T01880028  RH  035%=      5-min Rain = 0
KNOR 200020Z 16009KT 19/03 A2979 RMK A01 T01880029  RH  035%=      5-min Rain = 0
KNOR 200025Z 16009KT 19/03 A2978 RMK A01 T01880030  RH  035%=      5-min Rain = 0
KNOR 200030Z 15008KT 19/03 A2979 RMK A01 T01860030  RH  036%=      5-min Rain = 0
KNOR 200035Z 15008KT 18/03 A2978 RMK A01 T01840030  RH  036%=      5-min Rain = 0
KNOR 200040Z 15008KT 18/03 A2978 RMK A01 T01840031  RH  037%=      5-min Rain = 0
KNOR 200045Z 15009KT 18/03 A2978 RMK A01 T01830030  RH  037%=      5-min Rain = 0
KNOR 200050Z 14009KT 18/03 A2978 RMK A01 T01820030  RH  037%=      5-min Rain = 0
KNOR 200055Z 15010KT 18/03 A2979 RMK A01 T01820029  RH  037%=      5-min Rain = 0
KNOR 200100Z 15010KT 18/03 A2979 RMK A01 T01840028  RH  036%=      5-min Rain = 0
KNOR 200105Z 14010KT 18/03 A2979 RMK A01 T01830027  RH  036%=      5-min Rain = 0
KNOR 200110Z 15009KT 18/03 A2979 RMK A01 T01810027  RH  036%=      5-min Rain = 0
KNOR 200115Z 15009KT 18/03 A2979 RMK A01 T01790026  RH  036%=      5-min Rain = 0
KNOR 200120Z 15009KT 18/03 A2978 RMK A01 T01780025  RH  036%=      5-min Rain = 0
KNOR 200125Z 15009KT 18/02 A2978 RMK A01 T01760024  RH  037%=      5-min Rain = 0
KNOR 200130Z 15009KT 17/02 A2979 RMK A01 T01730024  RH  037%=      5-min Rain = 0
KNOR 200135Z 15010KT 17/02 A2978 RMK A01 T01700023  RH  038%=      5-min Rain = 0
KNOR 200140Z 15010KT 17/02 A2978 RMK A01 T01680023  RH  038%=      5-min Rain = 0
KNOR 200145Z 15010KT 17/02 A2978 RMK A01 T01660023  RH  039%=      5-min Rain = 0
KNOR 200150Z 16011KT 17/02 A2978 RMK A01 T01660023  RH  039%=      5-min Rain = 0
KNOR 200155Z 16011KT 17/02 A2978 RMK A01 T01660023  RH  039%=      5-min Rain = 0
KNOR 200200Z 16011KT 17/02 A2979 RMK A01 T01670023  RH  039%=      5-min Rain = 0
KNOR 200205Z 16011KT 17/03 A2979 RMK A01 T01690025  RH  038%=      5-min Rain = 0
KNOR 200210Z 16011KT 17/03 A2979 RMK A01 T01690026  RH  039%=      5-min Rain = 0
KNOR 200215Z 17010KT 17/03 A2979 RMK A01 T01680027  RH  039%=      5-min Rain = 0
KNOR 200220Z 17010KT 17/03 A2979 RMK A01 T01660028  RH  040%=      5-min Rain = 0
KNOR 200225Z 17012KT 17/03 A2979 RMK A01 T01670030  RH  041%=      5-min Rain = 0
KNOR 200230Z 16013G18KT 17/03 A2978 RMK A01 T01720034  RH  040%=      5-min Rain = 0
KNOR 200235Z 17013KT 17/04 A2978 RMK A01 T01740036  RH  041%=      5-min Rain = 0
KNOR 200240Z 17013KT 17/04 A2978 RMK A01 T01740037  RH  041%=      5-min Rain = 0
KNOR 200245Z 17013G18KT 17/04 A2979 RMK A01 T01730038  RH  041%=      5-min Rain = 0
KNOR 200250Z 17014KT 17/04 A2979 RMK A01 T01730038  RH  042%=      5-min Rain = 0
KNOR 200255Z 17015G21KT 17/04 A2979 RMK A01 T01740040  RH  042%=      5-min Rain = 0
KNOR 200300Z 17015G20KT 17/04 A2979 RMK A01 T01740041  RH  042%=      5-min Rain = 0
KNOR 200305Z 17015G21KT 17/04 A2979 RMK A01 T01740041  RH  042%=      5-min Rain = 0
KNOR 200310Z 17015KT 17/04 A2979 RMK A01 T01730042  RH  042%=      5-min Rain = 0
KNOR 200315Z 16015G21KT 17/04 A2979 RMK A01 T01720042  RH  043%=      5-min Rain = 0
KNOR 200320Z 16015G20KT 17/04 A2979 RMK A01 T01710042  RH  043%=      5-min Rain = 0
KNOR 200325Z 16015KT 17/04 A2979 RMK A01 T01700043  RH  044%=      5-min Rain = 0
KNOR 200330Z 16014KT 17/04 A2979 RMK A01 T01680043  RH  044%=      5-min Rain = 0
KNOR 200335Z 16014KT 17/04 A2979 RMK A01 T01670043  RH  045%=      5-min Rain = 0
KNOR 200340Z 16014KT 17/04 A2979 RMK A01 T01660043  RH  045%=      5-min Rain = 0
KNOR 200345Z 16015KT 17/04 A2979 RMK A01 T01660044  RH  045%=      5-min Rain = 0
KNOR 200350Z 16015KT 17/04 A2979 RMK A01 T01660044  RH  045%=      5-min Rain = 0
KNOR 200355Z 16014KT 16/04 A2979 RMK A01 T01640044  RH  046%=      5-min Rain = 0
KNOR 200400Z 16013KT 16/05 A2979 RMK A01 T01620045  RH  046%=      5-min Rain = 0
KNOR 200405Z 16013KT 16/05 A2979 RMK A01 T01600045  RH  047%=      5-min Rain = 0
KNOR 200410Z 16014KT 16/05 A2979 RMK A01 T01600046  RH  048%=      5-min Rain = 0
KNOR 200415Z 16015KT 16/05 A2979 RMK A01 T01620047  RH  047%=      5-min Rain = 0
KNOR 200420Z 17015KT 16/05 A2978 RMK A01 T01640048  RH  047%=      5-min Rain = 0
KNOR 200425Z 16014KT 16/05 A2978 RMK A01 T01640048  RH  047%=      5-min Rain = 0
KNOR 200430Z 16015KT 16/05 A2978 RMK A01 T01640049  RH  048%=      5-min Rain = 0
KNOR 200435Z 16015KT 16/05 A2978 RMK A01 T01640050  RH  048%=      5-min Rain = 0
KNOR 200440Z 17014G19KT 16/05 A2978 RMK A01 T01640050  RH  048%=      5-min Rain = 0
KNOR 200445Z 16014KT 16/05 A2978 RMK A01 T01630051  RH  048%=      5-min Rain = 0
KNOR 200450Z 16014KT 16/05 A2978 RMK A01 T01620051  RH  049%=      5-min Rain = 0
KNOR 200455Z 17014KT 16/05 A2978 RMK A01 T01610052  RH  049%=      5-min Rain = 0
KNOR 200500Z 16014KT 16/05 A2978 RMK A01 T01610052  RH  049%=      5-min Rain = 0
KNOR 200505Z 17013G18KT 16/05 A2978 RMK A01 T01610053  RH  050%=      5-min Rain = 0
KNOR 200510Z 17013G18KT 16/05 A2978 RMK A01 T01610053  RH  050%=      5-min Rain = 0
KNOR 200515Z 17014G19KT 16/05 A2978 RMK A01 T01630053  RH  049%=      5-min Rain = 0
KNOR 200520Z 17013KT 16/05 A2978 RMK A01 T01620053  RH  049%=      5-min Rain = 0
KNOR 200525Z 17012KT 16/05 A2978 RMK A01 T01590053  RH  051%=      5-min Rain = 0
KNOR 200530Z 17011KT 16/05 A2978 RMK A01 T01560054  RH  052%=      5-min Rain = 0
KNOR 200535Z 17012KT 16/05 A2978 RMK A01 T01560054  RH  052%=      5-min Rain = 0
KNOR 200540Z 17011G16KT 16/05 A2978 RMK A01 T01560054  RH  052%=      5-min Rain = 0
KNOR 200545Z 18011KT 16/06 A2978 RMK A01 T01560055  RH  052%=      5-min Rain = 0
KNOR 200550Z 18011G16KT 16/06 A2978 RMK A01 T01560055  RH  052%=      5-min Rain = 0
KNOR 200555Z 18011KT 16/06 A2978 RMK A01 T01550055  RH  052%=      5-min Rain = 0

Page generated in 0.0662 seconds.